»·PEaware :: N129WS KSBA-KSNA

N129WS :: KSBA-KSNA

FLIGHT INFORMATION

Flight Status: Arrived
Operator: Privately registered:
United States
More flights under this callsign
Pilot: Michael M. (12217)
Aircraft: Unknown
(EPIC)
More flights by this aircraft type
Origin: KSBA Santa Barbara Mun
United States
Destination: KSNA John Wayne-Orange Co
United States
More flights between these airports :: More routes between these airports
Route: +KWANG VTU V208 SXC SLI
File this flight plan on PilotEdge
Remarks:
Altitude:
(Current/Filed)
9,000ft
Speed:
(Current/Filed)
200kts
Departed: 09-Jul-17 06:57 PM
Arrived: 09-Jul-17 07:46 PM
Distance/Time
Traveled:
108nm/0:48
Distance/Time
To Go:
Arrived

Flight Plot

Page will automatically refresh every two minutes.


Map Options




Map Legend


Flown Route
Filed Route
Departure Airport
Arrival Airport
Navaid (VOR, NDB)
Fix

Horizontal Profiles

Position Reports

Time Latitude Longitude Heading Altitude Ground
Speed
09-Jul-17 18:34 34.432560 -119.835098 71 14ft 0kts
09-Jul-17 18:35 34.432560 -119.835098 71 14ft 0kts
09-Jul-17 18:36 34.432560 -119.835098 71 14ft 0kts
09-Jul-17 18:37 34.432560 -119.835098 71 14ft 0kts
09-Jul-17 18:38 34.432560 -119.835098 71 14ft 0kts
09-Jul-17 18:39 34.432560 -119.835098 71 14ft 0kts
09-Jul-17 18:40 34.432560 -119.835098 71 14ft 0kts
09-Jul-17 18:41 34.432560 -119.835098 71 14ft 0kts
09-Jul-17 18:42 34.432560 -119.835098 71 14ft 0kts
09-Jul-17 18:43 34.432560 -119.835098 71 14ft 0kts
09-Jul-17 18:44 34.432560 -119.835098 71 14ft 0kts
09-Jul-17 18:45 34.432560 -119.835098 71 14ft 0kts
09-Jul-17 18:46 34.432560 -119.835098 71 14ft 0kts
09-Jul-17 18:47 34.432560 -119.835098 71 14ft 0kts
09-Jul-17 18:48 34.432560 -119.835098 71 14ft 0kts
09-Jul-17 18:49 34.432560 -119.835098 71 14ft 0kts
09-Jul-17 18:50 34.432560 -119.835098 71 14ft 0kts
09-Jul-17 18:51 34.432560 -119.835098 71 14ft 0kts
09-Jul-17 18:52 34.432560 -119.835098 71 14ft 0kts
09-Jul-17 18:53 34.432560 -119.835098 71 14ft 0kts
09-Jul-17 18:54 34.432560 -119.835098 71 14ft 0kts
09-Jul-17 18:55 34.432560 -119.835098 71 14ft 0kts
09-Jul-17 18:56 34.432776 -119.835050 174 14ft 2kts
09-Jul-17 18:57 34.428682 -119.835301 180 11ft 2kts
09-Jul-17 18:58 34.428653 -119.835307 190 11ft 0kts
09-Jul-17 18:59 34.428653 -119.835307 190 11ft 0kts
09-Jul-17 19:00 34.427798 -119.836577 261 11ft 49kts
09-Jul-17 19:01 34.423462 -119.886456 262 1667ft 215kts
09-Jul-17 19:02 34.415323 -119.964258 262 2961ft 250kts
09-Jul-17 19:03 34.406375 -120.053145 264 3747ft 263kts
09-Jul-17 19:04 34.455716 -120.080263 46 5361ft 256kts
09-Jul-17 19:05 34.452446 -119.998005 102 7049ft 251kts
09-Jul-17 19:06 34.438628 -119.917109 102 8742ft 241kts
09-Jul-17 19:07 34.424942 -119.832183 101 9011ft 273kts
09-Jul-17 19:08 34.385796 -119.752148 114 9019ft 284kts
09-Jul-17 19:09 34.356317 -119.664036 111 9017ft 281kts
09-Jul-17 19:10 34.328568 -119.575971 110 9017ft 280kts
09-Jul-17 19:11 34.300452 -119.493620 116 9015ft 253kts
09-Jul-17 19:12 34.269719 -119.419297 116 9016ft 243kts
09-Jul-17 19:13 34.239728 -119.347374 115 9018ft 243kts
09-Jul-17 19:14 34.212395 -119.281745 115 9019ft 244kts
09-Jul-17 19:15 34.181879 -119.208727 115 9017ft 244kts
09-Jul-17 19:16 34.151366 -119.135895 115 9007ft 244kts
09-Jul-17 19:17 34.120324 -119.063018 124 8999ft 245kts
09-Jul-17 19:18 34.055548 -119.043686 173 9009ft 249kts
09-Jul-17 19:19 33.987024 -119.036073 174 9009ft 249kts
09-Jul-17 19:20 33.918050 -119.028799 174 9010ft 249kts
09-Jul-17 19:21 33.850851 -119.021768 174 9011ft 255kts
09-Jul-17 19:22 33.783516 -119.002142 131 9017ft 266kts
09-Jul-17 19:23 33.734142 -118.933365 128 9019ft 278kts
09-Jul-17 19:24 33.684378 -118.861925 129 9035ft 278kts
09-Jul-17 19:25 33.636203 -118.792789 128 9059ft 277kts
09-Jul-17 19:26 33.587284 -118.722636 128 9070ft 264kts
09-Jul-17 19:27 33.552445 -118.672756 128 9006ft 255kts
09-Jul-17 19:28 33.508461 -118.609893 128 8998ft 247kts
09-Jul-17 19:29 33.464633 -118.547361 128 8999ft 244kts
09-Jul-17 19:30 33.421027 -118.485254 128 8999ft 243kts
09-Jul-17 19:31 33.387592 -118.419296 76 8994ft 240kts
09-Jul-17 19:32 33.435573 -118.364596 37 8654ft 254kts
09-Jul-17 19:33 33.484909 -118.320293 37 7146ft 267kts
09-Jul-17 19:34 33.540177 -118.270929 35 6963ft 238kts
09-Jul-17 19:35 33.593211 -118.224046 34 6994ft 233kts
09-Jul-17 19:36 33.645218 -118.178192 34 6999ft 233kts
09-Jul-17 19:37 33.697331 -118.132065 38 6583ft 240kts
09-Jul-17 19:38 33.755292 -118.090627 31 5206ft 244kts
09-Jul-17 19:39 33.801898 -118.034815 51 4004ft 226kts
09-Jul-17 19:40 33.840377 -117.979345 51 3993ft 211kts
09-Jul-17 19:41 33.858675 -117.912049 81 3093ft 236kts
09-Jul-17 19:42 33.869527 -117.837428 81 2989ft 216kts
09-Jul-17 19:43 33.879910 -117.767866 81 2985ft 208kts
09-Jul-17 19:44 33.858828 -117.721009 200 2752ft 192kts
09-Jul-17 19:45 33.821443 -117.759532 224 2506ft 179kts
09-Jul-17 19:46 33.781786 -117.796713 215 2084ft 175kts
09-Jul-17 19:47 33.738422 -117.827273 206 1195ft 198kts
09-Jul-17 19:48 33.696482 -117.855090 210 517ft 116kts
09-Jul-17 19:49 33.677269 -117.867805 210 46ft 28kts
09-Jul-17 19:50 33.675981 -117.869874 286 50ft 0kts
09-Jul-17 19:51 33.675231 -117.870588 206 50ft 11kts

Navigation Log

Ident Type
1. KSBA Airport
2. KWANG Fix
3. VTU Navaid
4. WEEZL Fix
5. SXC Navaid
6. SLI Navaid
7. KSNA Airport